Terminal Aerodrome Forecast
Issued by NWS Green Bay, WI

Home | Current Version | Previous Version | Text Only | Print | Product List | Glossary Off
Versions: 1 2 3 4 5 6 7 8 9 10 11 12 13 14 15 16 17 18 19 20 21 22 23 24

000
FTUS43 KGRB 171316 AAA
TAFGRB
TAF AMD
KGRB 171316Z 1713/1812 17010G16KT P6SM VCSH BKN015
      TEMPO 1713/1715 SCT015
     FM171700 21013G20KT P6SM VCSH BKN025
      TEMPO 1717/1719 4SM TSRA BKN015CB
     FM180000 25011G20KT P6SM BKN015
     FM180600 28011G21KT P6SM BKN020=

USA.gov is the U.S. government's official web portal to all federal, state and local government web resources and services.